createdAt,value
2018-09-30T00:02:09.713Z,53.83
2018-09-30T00:07:02.371Z,53.66
2018-09-30T00:11:55.193Z,53.32
2018-09-30T00:16:47.853Z,53.15
2018-09-30T00:21:40.463Z,53.04
2018-09-30T00:26:38.911Z,53.16
2018-09-30T00:31:31.533Z,53.46
2018-09-30T00:36:24.262Z,53.31
2018-09-30T00:41:16.860Z,53.81
2018-09-30T00:46:09.766Z,54.43
2018-09-30T00:51:02.717Z,54.32
2018-09-30T00:55:55.394Z,54.90
2018-09-30T01:00:48.047Z,54.65
2018-09-30T01:05:40.694Z,55.31
2018-09-30T01:10:33.412Z,55.10
2018-09-30T01:15:26.059Z,55.10
2018-09-30T01:20:18.762Z,55.88
2018-09-30T01:25:11.399Z,55.69
2018-09-30T01:30:04.391Z,56.00
2018-09-30T01:34:57.039Z,56.28
2018-09-30T01:39:49.630Z,56.37
2018-09-30T01:44:42.268Z,56.32
2018-09-30T01:49:34.911Z,56.72
2018-09-30T01:54:27.610Z,57.24
2018-09-30T01:59:20.318Z,56.99
2018-09-30T02:04:12.976Z,57.06
2018-09-30T02:09:05.713Z,57.51
2018-09-30T02:13:58.297Z,57.98
2018-09-30T02:18:51.003Z,58.18
2018-09-30T02:23:43.624Z,58.26
2018-09-30T02:28:36.238Z,58.07
2018-09-30T02:33:28.872Z,58.59
2018-09-30T02:38:21.532Z,58.76
2018-09-30T02:43:14.174Z,58.99
2018-09-30T02:48:06.805Z,58.99
2018-09-30T02:52:59.470Z,58.87
2018-09-30T02:57:52.071Z,59.31
2018-09-30T03:02:44.681Z,59.43
2018-09-30T03:07:43.030Z,59.69
2018-09-30T03:12:35.665Z,59.46
2018-09-30T03:17:28.351Z,59.34
2018-09-30T03:22:21.003Z,58.75
2018-09-30T03:27:13.633Z,58.75
2018-09-30T03:32:06.243Z,57.99
2018-09-30T03:36:58.958Z,58.41
2018-09-30T03:41:51.620Z,58.75
2018-09-30T03:46:44.247Z,58.30
2018-09-30T03:51:36.882Z,58.11
2018-09-30T03:56:29.783Z,58.30
2018-09-30T04:01:22.435Z,58.16
2018-09-30T04:06:15.086Z,58.37
2018-09-30T04:11:07.860Z,58.60
2018-09-30T04:16:00.503Z,58.56
2018-09-30T04:20:53.197Z,58.40
2018-09-30T04:25:45.806Z,58.41
2018-09-30T04:30:38.469Z,58.20
2018-09-30T04:35:31.196Z,58.75
2018-09-30T04:40:24.058Z,58.45
2018-09-30T04:45:16.688Z,58.67
2018-09-30T04:50:09.392Z,58.47
2018-09-30T04:55:02.038Z,58.31
2018-09-30T04:59:54.739Z,58.23
2018-09-30T05:04:47.412Z,58.61
2018-09-30T05:09:40.041Z,58.67
2018-09-30T05:14:32.758Z,58.87
2018-09-30T05:19:25.466Z,59.26
2018-09-30T05:24:18.194Z,59.79
2018-09-30T05:29:10.834Z,59.92
2018-09-30T05:34:03.487Z,59.56
2018-09-30T05:38:56.131Z,59.55
2018-09-30T05:43:48.791Z,59.78
2018-09-30T05:48:41.479Z,59.58
2018-09-30T05:53:34.120Z,59.37
2018-09-30T05:58:27.043Z,59.56
2018-09-30T06:03:19.859Z,59.82
2018-09-30T06:08:12.773Z,59.50
2018-09-30T06:13:05.880Z,59.58
2018-09-30T06:17:59.188Z,59.49
2018-09-30T06:22:51.981Z,59.50
2018-09-30T06:27:44.884Z,59.37
2018-09-30T06:32:37.898Z,59.06
2018-09-30T06:37:30.922Z,58.51
2018-09-30T06:42:23.762Z,58.16
2018-09-30T06:47:16.827Z,57.21
2018-09-30T06:52:10.136Z,56.51
2018-09-30T06:57:03.071Z,56.64
2018-09-30T07:01:55.999Z,56.45
2018-09-30T07:06:48.975Z,56.30
2018-09-30T07:11:41.870Z,55.43
2018-09-30T07:16:34.718Z,55.23
2018-09-30T07:21:27.592Z,54.37
2018-09-30T07:26:20.435Z,53.59
2018-09-30T07:31:13.298Z,53.35
2018-09-30T07:36:07.260Z,53.16
2018-09-30T07:41:00.674Z,52.27
2018-09-30T07:45:53.542Z,51.93
2018-09-30T07:50:46.463Z,51.75
2018-09-30T07:55:39.347Z,51.60
2018-09-30T08:00:32.068Z,50.97
2018-09-30T08:05:24.936Z,51.31
2018-09-30T08:10:18.298Z,51.17
2018-09-30T08:15:11.749Z,50.61
2018-09-30T08:20:04.697Z,50.46
2018-09-30T08:24:57.595Z,50.24
2018-09-30T08:29:50.424Z,50.00
2018-09-30T08:34:43.361Z,49.90
2018-09-30T08:39:36.223Z,49.46
2018-09-30T08:44:29.076Z,49.12
2018-09-30T08:49:21.879Z,48.31
2018-09-30T08:54:14.867Z,47.22
2018-09-30T08:59:07.782Z,47.74
2018-09-30T09:04:00.706Z,46.92
2018-09-30T09:08:53.744Z,46.85
2018-09-30T09:13:46.643Z,45.39
2018-09-30T09:18:41.855Z,44.69
2018-09-30T09:23:35.061Z,44.87
2018-09-30T09:28:29.966Z,43.59
2018-09-30T09:33:26.984Z,44.11
2018-09-30T09:38:23.302Z,42.31
2018-09-30T09:43:16.388Z,42.11
2018-09-30T09:48:09.125Z,41.75
2018-09-30T09:53:01.788Z,41.09
2018-09-30T09:57:54.459Z,40.65
2018-09-30T10:02:47.122Z,39.87
2018-09-30T10:07:39.824Z,39.86
2018-09-30T10:12:32.507Z,38.89
2018-09-30T10:17:25.142Z,37.58
2018-09-30T10:22:17.834Z,37.94
2018-09-30T10:27:10.495Z,37.53
2018-09-30T10:32:03.126Z,36.52
2018-09-30T10:36:55.707Z,36.79
2018-09-30T10:41:48.350Z,36.22
2018-09-30T10:46:41.004Z,36.40
2018-09-30T10:51:33.586Z,36.35
2018-09-30T10:56:26.224Z,35.46
2018-09-30T11:01:19.082Z,34.70
2018-09-30T11:06:11.796Z,34.65
2018-09-30T11:11:04.606Z,34.01
2018-09-30T11:15:57.322Z,34.35
2018-09-30T11:20:50.011Z,34.03
2018-09-30T11:25:42.694Z,33.19
2018-09-30T11:30:35.406Z,32.70
2018-09-30T11:35:28.038Z,33.15
2018-09-30T11:40:20.696Z,32.68
2018-09-30T11:45:13.806Z,32.67
2018-09-30T11:50:06.537Z,32.31
2018-09-30T11:54:59.251Z,31.42
2018-09-30T11:59:51.924Z,30.42
2018-09-30T12:04:44.830Z,30.91
2018-09-30T12:09:37.417Z,31.02
2018-09-30T12:14:30.079Z,30.72
2018-09-30T12:19:22.778Z,30.96
2018-09-30T12:24:15.461Z,30.38
2018-09-30T12:29:08.094Z,31.76
2018-09-30T12:34:00.683Z,30.03
2018-09-30T12:38:53.316Z,29.13
2018-09-30T12:43:46.102Z,29.86
2018-09-30T12:48:38.761Z,29.87
2018-09-30T12:53:31.368Z,29.76
2018-09-30T12:58:24.099Z,28.80
2018-09-30T13:03:16.752Z,29.85
2018-09-30T13:08:09.456Z,29.27
2018-09-30T13:13:02.134Z,28.24
2018-09-30T13:17:54.848Z,28.87
2018-09-30T13:22:47.499Z,29.17
2018-09-30T13:27:40.263Z,28.98
2018-09-30T13:32:32.936Z,29.03
2018-09-30T13:37:25.702Z,27.36
2018-09-30T13:42:18.418Z,28.02
2018-09-30T13:47:11.132Z,28.18
2018-09-30T13:52:03.906Z,27.43
2018-09-30T13:56:56.639Z,28.06
2018-09-30T14:01:49.271Z,27.99
2018-09-30T14:06:41.963Z,28.01
2018-09-30T14:11:34.671Z,26.91
2018-09-30T14:16:27.398Z,27.40
2018-09-30T14:21:20.050Z,27.25
2018-09-30T14:26:12.686Z,27.13
2018-09-30T14:31:05.573Z,27.00
2018-09-30T14:35:58.274Z,27.34
2018-09-30T14:40:50.967Z,26.32
2018-09-30T14:45:43.586Z,27.60
2018-09-30T14:50:36.246Z,27.31
2018-09-30T14:55:28.922Z,27.29
2018-09-30T15:00:21.619Z,27.89
2018-09-30T15:05:14.270Z,27.29
2018-09-30T15:10:06.942Z,27.01
2018-09-30T15:14:59.722Z,27.39
2018-09-30T15:19:52.358Z,27.64
2018-09-30T15:24:45.055Z,27.10
2018-09-30T15:29:37.716Z,27.84
2018-09-30T15:34:30.417Z,27.96
2018-09-30T15:39:23.022Z,27.70
2018-09-30T15:44:15.694Z,28.20
2018-09-30T15:49:08.867Z,27.92
2018-09-30T15:54:01.944Z,28.65
2018-09-30T15:58:54.626Z,28.60
2018-09-30T16:03:47.342Z,29.52
2018-09-30T16:08:40.090Z,29.68
2018-09-30T16:13:32.674Z,29.59
2018-09-30T16:18:25.409Z,29.35
2018-09-30T16:23:18.070Z,30.88
2018-09-30T16:28:10.782Z,30.07
2018-09-30T16:33:03.524Z,31.31
2018-09-30T16:37:56.178Z,32.51
2018-09-30T16:42:48.785Z,33.06
2018-09-30T16:47:41.534Z,33.83
2018-09-30T16:52:34.245Z,34.99
2018-09-30T16:57:26.934Z,35.25
2018-09-30T17:02:19.602Z,35.85
2018-09-30T17:07:12.271Z,36.46
2018-09-30T17:12:04.841Z,36.42
2018-09-30T17:16:57.810Z,37.24
2018-09-30T17:21:50.609Z,37.50
2018-09-30T17:26:43.389Z,37.16
2018-09-30T17:31:36.279Z,38.15
2018-09-30T17:36:29.070Z,37.81
2018-09-30T17:41:21.822Z,38.40
2018-09-30T17:46:14.882Z,39.26
2018-09-30T17:51:07.641Z,39.45
2018-09-30T17:56:00.278Z,39.67
2018-09-30T18:00:52.962Z,40.50
2018-09-30T18:05:45.690Z,40.64
2018-09-30T18:10:38.330Z,40.63
2018-09-30T18:15:31.114Z,40.80
2018-09-30T18:20:24.063Z,41.27
2018-09-30T18:25:16.613Z,41.08
2018-09-30T18:30:09.531Z,41.36
2018-09-30T18:35:02.216Z,41.38
2018-09-30T18:39:54.943Z,41.64
2018-09-30T18:44:47.561Z,41.96
2018-09-30T18:49:40.192Z,42.59
2018-09-30T18:54:32.877Z,42.27
2018-09-30T18:59:25.764Z,42.57
2018-09-30T19:04:18.537Z,42.82
2018-09-30T19:09:11.142Z,42.98
2018-09-30T19:14:04.197Z,44.07
2018-09-30T19:18:56.816Z,45.00
2018-09-30T19:23:49.430Z,44.95
2018-09-30T19:28:42.045Z,45.89
2018-09-30T19:33:34.679Z,45.79
2018-09-30T19:38:27.400Z,46.38
2018-09-30T19:43:20.145Z,46.05
2018-09-30T19:48:13.643Z,47.01
2018-09-30T19:53:06.295Z,46.95
2018-09-30T19:57:58.947Z,47.60
2018-09-30T20:02:51.590Z,47.41
2018-09-30T20:07:44.356Z,47.67
2018-09-30T20:12:36.992Z,48.26
2018-09-30T20:17:29.642Z,48.69
2018-09-30T20:22:22.270Z,48.92
2018-09-30T20:27:15.028Z,49.53
2018-09-30T20:32:07.581Z,49.56
2018-09-30T20:37:00.088Z,49.74
2018-09-30T20:41:52.787Z,50.31
2018-09-30T20:46:45.410Z,50.75
2018-09-30T20:51:38.179Z,51.06
2018-09-30T20:56:30.831Z,51.34
2018-09-30T21:01:23.566Z,51.55
2018-09-30T21:06:24.634Z,52.04
2018-09-30T21:11:17.351Z,52.18
2018-09-30T21:16:10.018Z,52.14
2018-09-30T21:21:02.625Z,52.15
2018-09-30T21:25:55.718Z,51.85
2018-09-30T21:30:48.459Z,52.42
2018-09-30T21:35:41.129Z,52.73
2018-09-30T21:40:33.854Z,53.02
2018-09-30T21:45:26.684Z,53.14
2018-09-30T21:50:19.373Z,53.51
2018-09-30T21:55:12.082Z,53.54
2018-09-30T22:00:05.930Z,54.00
2018-09-30T22:04:58.690Z,54.47
2018-09-30T22:09:51.333Z,54.45
2018-09-30T22:14:43.946Z,54.40
2018-09-30T22:19:36.644Z,54.62
2018-09-30T22:24:29.288Z,55.17
2018-09-30T22:29:21.966Z,54.81
2018-09-30T22:34:14.655Z,55.68
2018-09-30T22:39:08.102Z,55.64
2018-09-30T22:44:00.769Z,56.07
2018-09-30T22:48:53.426Z,56.50
2018-09-30T22:53:46.087Z,56.59
2018-09-30T22:58:38.855Z,56.76
2018-09-30T23:03:31.495Z,57.05
2018-09-30T23:08:24.134Z,57.13
2018-09-30T23:13:16.918Z,57.38
2018-09-30T23:18:09.558Z,57.05
2018-09-30T23:23:02.157Z,57.52
2018-09-30T23:27:54.837Z,57.60
2018-09-30T23:32:47.502Z,58.02
2018-09-30T23:37:40.118Z,58.05
2018-09-30T23:42:32.770Z,58.32
2018-09-30T23:47:25.491Z,58.89
2018-09-30T23:52:18.130Z,58.83
2018-09-30T23:57:10.760Z,58.99
